sensor_id;sensor_type;location;lat;lon;timestamp;P1;durP1;ratioP1;P2;durP2;ratioP2
80115;SDS011;69423;47.608;19.366;2023-05-23T00:00:22;9.57;;;9.57;;
80115;SDS011;69423;47.608;19.366;2023-05-23T00:00:53;10.00;;;10.00;;
80115;SDS011;69423;47.608;19.366;2023-05-23T00:01:24;9.30;;;9.30;;
80115;SDS011;69423;47.608;19.366;2023-05-23T00:01:55;9.73;;;9.73;;
80115;SDS011;69423;47.608;19.366;2023-05-23T00:02:27;9.70;;;9.60;;
80115;SDS011;69423;47.608;19.366;2023-05-23T00:02:59;9.47;;;9.33;;
80115;SDS011;69423;47.608;19.366;2023-05-23T00:03:30;9.83;;;9.83;;
80115;SDS011;69423;47.608;19.366;2023-05-23T00:04:02;9.37;;;9.37;;
80115;SDS011;69423;47.608;19.366;2023-05-23T00:04:34;9.90;;;9.90;;
80115;SDS011;69423;47.608;19.366;2023-05-23T00:05:06;10.10;;;10.10;;
80115;SDS011;69423;47.608;19.366;2023-05-23T00:05:37;9.70;;;9.70;;
80115;SDS011;69423;47.608;19.366;2023-05-23T00:06:08;9.33;;;9.33;;
80115;SDS011;69423;47.608;19.366;2023-05-23T00:06:39;9.07;;;9.07;;
80115;SDS011;69423;47.608;19.366;2023-05-23T00:07:14;9.77;;;9.77;;
80115;SDS011;69423;47.608;19.366;2023-05-23T00:07:45;9.70;;;9.67;;
80115;SDS011;69423;47.608;19.366;2023-05-23T00:08:16;10.27;;;10.10;;
80115;SDS011;69423;47.608;19.366;2023-05-23T00:08:48;9.77;;;9.63;;
80115;SDS011;69423;47.608;19.366;2023-05-23T00:09:19;9.37;;;9.37;;
80115;SDS011;69423;47.608;19.366;2023-05-23T00:09:50;9.43;;;9.43;;
80115;SDS011;69423;47.608;19.366;2023-05-23T00:10:21;9.63;;;9.57;;
80115;SDS011;69423;47.608;19.366;2023-05-23T00:10:52;9.80;;;9.57;;
80115;SDS011;69423;47.608;19.366;2023-05-23T00:11:23;10.53;;;10.20;;
80115;SDS011;69423;47.608;19.366;2023-05-23T00:11:58;10.50;;;10.10;;
80115;SDS011;69423;47.608;19.366;2023-05-23T00:12:30;10.50;;;10.07;;
80115;SDS011;69423;47.608;19.366;2023-05-23T00:13:00;10.40;;;10.27;;
80115;SDS011;69423;47.608;19.366;2023-05-23T00:13:32;9.83;;;9.77;;
80115;SDS011;69423;47.608;19.366;2023-05-23T00:14:04;10.20;;;9.83;;
80115;SDS011;69423;47.608;19.366;2023-05-23T00:14:37;10.47;;;10.47;;
80115;SDS011;69423;47.608;19.366;2023-05-23T00:15:09;9.80;;;9.80;;
80115;SDS011;69423;47.608;19.366;2023-05-23T00:15:40;9.33;;;9.33;;
80115;SDS011;69423;47.608;19.366;2023-05-23T00:16:12;9.33;;;9.33;;
80115;SDS011;69423;47.608;19.366;2023-05-23T00:16:43;9.20;;;9.20;;
80115;SDS011;69423;47.608;19.366;2023-05-23T00:17:15;9.47;;;9.47;;
80115;SDS011;69423;47.608;19.366;2023-05-23T00:17:46;9.83;;;9.83;;
80115;SDS011;69423;47.608;19.366;2023-05-23T00:18:17;10.00;;;10.00;;
80115;SDS011;69423;47.608;19.366;2023-05-23T00:18:48;9.73;;;9.73;;
80115;SDS011;69423;47.608;19.366;2023-05-23T00:19:19;9.40;;;9.40;;
80115;SDS011;69423;47.608;19.366;2023-05-23T00:19:50;10.20;;;10.20;;
80115;SDS011;69423;47.608;19.366;2023-05-23T00:20:22;10.27;;;10.27;;
80115;SDS011;69423;47.608;19.366;2023-05-23T00:20:53;10.00;;;10.00;;
80115;SDS011;69423;47.608;19.366;2023-05-23T00:21:23;9.40;;;9.40;;
80115;SDS011;69423;47.608;19.366;2023-05-23T00:21:54;10.23;;;10.23;;
80115;SDS011;69423;47.608;19.366;2023-05-23T00:22:28;10.70;;;10.63;;
80115;SDS011;69423;47.608;19.366;2023-05-23T00:22:59;10.67;;;10.67;;
80115;SDS011;69423;47.608;19.366;2023-05-23T00:23:29;11.20;;;11.20;;
80115;SDS011;69423;47.608;19.366;2023-05-23T00:24:03;10.93;;;10.93;;
80115;SDS011;69423;47.608;19.366;2023-05-23T00:24:34;10.43;;;10.43;;
80115;SDS011;69423;47.608;19.366;2023-05-23T00:25:05;10.77;;;10.77;;
80115;SDS011;69423;47.608;19.366;2023-05-23T00:25:36;10.93;;;10.93;;
80115;SDS011;69423;47.608;19.366;2023-05-23T00:26:08;11.30;;;11.17;;
80115;SDS011;69423;47.608;19.366;2023-05-23T00:26:39;11.97;;;11.67;;
80115;SDS011;69423;47.608;19.366;2023-05-23T00:27:10;10.80;;;10.67;;
80115;SDS011;69423;47.608;19.366;2023-05-23T00:27:41;10.53;;;10.47;;
80115;SDS011;69423;47.608;19.366;2023-05-23T00:28:12;10.97;;;10.97;;
80115;SDS011;69423;47.608;19.366;2023-05-23T00:28:44;10.87;;;10.87;;
80115;SDS011;69423;47.608;19.366;2023-05-23T00:29:14;10.57;;;10.57;;
80115;SDS011;69423;47.608;19.366;2023-05-23T00:29:46;10.17;;;10.17;;
80115;SDS011;69423;47.608;19.366;2023-05-23T00:30:16;10.50;;;10.50;;
80115;SDS011;69423;47.608;19.366;2023-05-23T00:30:47;10.50;;;10.50;;
80115;SDS011;69423;47.608;19.366;2023-05-23T00:31:18;10.47;;;10.47;;
80115;SDS011;69423;47.608;19.366;2023-05-23T00:31:49;11.10;;;11.10;;
80115;SDS011;69423;47.608;19.366;2023-05-23T00:32:20;11.03;;;11.03;;
80115;SDS011;69423;47.608;19.366;2023-05-23T00:32:51;10.80;;;10.80;;
80115;SDS011;69423;47.608;19.366;2023-05-23T00:33:23;11.13;;;11.13;;
80115;SDS011;69423;47.608;19.366;2023-05-23T00:33:54;11.17;;;11.17;;
80115;SDS011;69423;47.608;19.366;2023-05-23T00:34:25;11.03;;;11.00;;
80115;SDS011;69423;47.608;19.366;2023-05-23T00:34:56;10.93;;;10.93;;
80115;SDS011;69423;47.608;19.366;2023-05-23T00:35:27;10.63;;;10.63;;
80115;SDS011;69423;47.608;19.366;2023-05-23T00:35:58;10.47;;;10.47;;
80115;SDS011;69423;47.608;19.366;2023-05-23T00:36:29;10.37;;;10.37;;
80115;SDS011;69423;47.608;19.366;2023-05-23T00:37:00;10.80;;;10.80;;
80115;SDS011;69423;47.608;19.366;2023-05-23T00:37:31;10.53;;;10.53;;
80115;SDS011;69423;47.608;19.366;2023-05-23T00:38:03;11.57;;;11.53;;
80115;SDS011;69423;47.608;19.366;2023-05-23T00:38:37;10.97;;;10.97;;
80115;SDS011;69423;47.608;19.366;2023-05-23T00:39:08;11.10;;;11.10;;
80115;SDS011;69423;47.608;19.366;2023-05-23T00:39:48;11.20;;;11.20;;
80115;SDS011;69423;47.608;19.366;2023-05-23T00:40:19;11.13;;;11.13;;
80115;SDS011;69423;47.608;19.366;2023-05-23T00:40:50;11.43;;;11.43;;
80115;SDS011;69423;47.608;19.366;2023-05-23T00:41:21;11.27;;;11.27;;
80115;SDS011;69423;47.608;19.366;2023-05-23T00:41:52;11.93;;;11.93;;
80115;SDS011;69423;47.608;19.366;2023-05-23T00:42:22;10.80;;;10.80;;
80115;SDS011;69423;47.608;19.366;2023-05-23T00:42:53;10.77;;;10.77;;
80115;SDS011;69423;47.608;19.366;2023-05-23T00:43:24;10.80;;;10.80;;
80115;SDS011;69423;47.608;19.366;2023-05-23T00:43:56;10.87;;;10.87;;
80115;SDS011;69423;47.608;19.366;2023-05-23T00:44:30;10.57;;;10.57;;
80115;SDS011;69423;47.608;19.366;2023-05-23T00:45:01;11.03;;;11.03;;
80115;SDS011;69423;47.608;19.366;2023-05-23T00:45:32;10.90;;;10.90;;
80115;SDS011;69423;47.608;19.366;2023-05-23T00:46:03;11.10;;;11.10;;
80115;SDS011;69423;47.608;19.366;2023-05-23T00:46:34;10.67;;;10.67;;
80115;SDS011;69423;47.608;19.366;2023-05-23T00:47:06;10.77;;;10.77;;
80115;SDS011;69423;47.608;19.366;2023-05-23T00:47:40;10.50;;;10.50;;
80115;SDS011;69423;47.608;19.366;2023-05-23T00:48:12;10.73;;;10.73;;
80115;SDS011;69423;47.608;19.366;2023-05-23T00:48:44;11.07;;;11.07;;
80115;SDS011;69423;47.608;19.366;2023-05-23T00:49:15;10.93;;;10.90;;
80115;SDS011;69423;47.608;19.366;2023-05-23T00:49:49;10.37;;;10.33;;
80115;SDS011;69423;47.608;19.366;2023-05-23T00:50:20;10.73;;;10.73;;
80115;SDS011;69423;47.608;19.366;2023-05-23T00:50:52;10.67;;;10.67;;
80115;SDS011;69423;47.608;19.366;2023-05-23T00:51:23;10.60;;;10.60;;
80115;SDS011;69423;47.608;19.366;2023-05-23T00:51:55;10.63;;;10.63;;
80115;SDS011;69423;47.608;19.366;2023-05-23T00:52:26;10.63;;;10.63;;
80115;SDS011;69423;47.608;19.366;2023-05-23T00:52:57;11.47;;;11.47;;
80115;SDS011;69423;47.608;19.366;2023-05-23T00:53:30;10.63;;;10.63;;
80115;SDS011;69423;47.608;19.366;2023-05-23T00:54:03;11.27;;;11.27;;
80115;SDS011;69423;47.608;19.366;2023-05-23T00:54:36;10.77;;;10.77;;
80115;SDS011;69423;47.608;19.366;2023-05-23T00:55:08;10.27;;;10.27;;
80115;SDS011;69423;47.608;19.366;2023-05-23T00:55:39;11.10;;;11.10;;
80115;SDS011;69423;47.608;19.366;2023-05-23T00:56:10;10.83;;;10.83;;
80115;SDS011;69423;47.608;19.366;2023-05-23T00:56:43;10.67;;;10.67;;
80115;SDS011;69423;47.608;19.366;2023-05-23T00:57:14;10.43;;;10.43;;
80115;SDS011;69423;47.608;19.366;2023-05-23T00:57:45;10.60;;;10.60;;
80115;SDS011;69423;47.608;19.366;2023-05-23T00:58:16;10.23;;;10.23;;
80115;SDS011;69423;47.608;19.366;2023-05-23T00:58:48;10.33;;;10.33;;
80115;SDS011;69423;47.608;19.366;2023-05-23T00:59:19;9.97;;;9.97;;
80115;SDS011;69423;47.608;19.366;2023-05-23T00:59:52;10.33;;;10.23;;
80115;SDS011;69423;47.608;19.366;2023-05-23T01:00:25;9.97;;;9.93;;
80115;SDS011;69423;47.608;19.366;2023-05-23T01:00:57;9.83;;;9.83;;
80115;SDS011;69423;47.608;19.366;2023-05-23T01:01:29;9.90;;;9.90;;
80115;SDS011;69423;47.608;19.366;2023-05-23T01:02:00;10.00;;;10.00;;
80115;SDS011;69423;47.608;19.366;2023-05-23T01:02:31;9.93;;;9.93;;
80115;SDS011;69423;47.608;19.366;2023-05-23T01:03:06;10.37;;;10.37;;
80115;SDS011;69423;47.608;19.366;2023-05-23T01:03:37;9.97;;;9.97;;
80115;SDS011;69423;47.608;19.366;2023-05-23T01:04:08;10.03;;;10.00;;
80115;SDS011;69423;47.608;19.366;2023-05-23T01:04:39;9.63;;;9.63;;
80115;SDS011;69423;47.608;19.366;2023-05-23T01:05:11;9.77;;;9.73;;
80115;SDS011;69423;47.608;19.366;2023-05-23T01:05:46;10.63;;;10.63;;
80115;SDS011;69423;47.608;19.366;2023-05-23T01:06:17;10.17;;;10.17;;
80115;SDS011;69423;47.608;19.366;2023-05-23T01:06:49;9.87;;;9.87;;
80115;SDS011;69423;47.608;19.366;2023-05-23T01:07:20;9.77;;;9.77;;
80115;SDS011;69423;47.608;19.366;2023-05-23T01:07:52;9.97;;;9.97;;
80115;SDS011;69423;47.608;19.366;2023-05-23T01:08:23;9.97;;;9.97;;
80115;SDS011;69423;47.608;19.366;2023-05-23T01:08:54;9.93;;;9.93;;
80115;SDS011;69423;47.608;19.366;2023-05-23T01:09:26;10.03;;;10.03;;
80115;SDS011;69423;47.608;19.366;2023-05-23T01:09:58;10.33;;;10.33;;
80115;SDS011;69423;47.608;19.366;2023-05-23T01:10:29;10.60;;;10.60;;
80115;SDS011;69423;47.608;19.366;2023-05-23T01:11:02;10.67;;;10.67;;
80115;SDS011;69423;47.608;19.366;2023-05-23T01:11:42;10.47;;;10.47;;
80115;SDS011;69423;47.608;19.366;2023-05-23T01:13:38;11.03;;;10.73;;
80115;SDS011;69423;47.608;19.366;2023-05-23T01:14:18;9.57;;;9.57;;
80115;SDS011;69423;47.608;19.366;2023-05-23T01:17:30;10.60;;;10.60;;
80115;SDS011;69423;47.608;19.366;2023-05-23T01:18:12;10.17;;;10.13;;
80115;SDS011;69423;47.608;19.366;2023-05-23T01:18:49;10.00;;;9.90;;
80115;SDS011;69423;47.608;19.366;2023-05-23T01:20:10;10.13;;;10.03;;
80115;SDS011;69423;47.608;19.366;2023-05-23T01:20:56;9.73;;;9.70;;
80115;SDS011;69423;47.608;19.366;2023-05-23T01:21:30;10.60;;;10.60;;
80115;SDS011;69423;47.608;19.366;2023-05-23T01:22:05;10.00;;;10.00;;
80115;SDS011;69423;47.608;19.366;2023-05-23T01:24:40;9.80;;;9.80;;
80115;SDS011;69423;47.608;19.366;2023-05-23T01:28:14;9.80;;;9.80;;
80115;SDS011;69423;47.608;19.366;2023-05-23T01:28:49;10.27;;;10.27;;
80115;SDS011;69423;47.608;19.366;2023-05-23T01:29:28;10.20;;;10.20;;
80115;SDS011;69423;47.608;19.366;2023-05-23T01:30:03;10.43;;;10.37;;
80115;SDS011;69423;47.608;19.366;2023-05-23T01:30:39;10.77;;;10.77;;
80115;SDS011;69423;47.608;19.366;2023-05-23T01:31:15;10.93;;;10.93;;
80115;SDS011;69423;47.608;19.366;2023-05-23T01:31:48;10.60;;;10.60;;
80115;SDS011;69423;47.608;19.366;2023-05-23T01:32:24;10.43;;;10.37;;
80115;SDS011;69423;47.608;19.366;2023-05-23T01:32:58;10.27;;;10.10;;
80115;SDS011;69423;47.608;19.366;2023-05-23T01:33:31;10.17;;;10.17;;
80115;SDS011;69423;47.608;19.366;2023-05-23T01:34:03;10.70;;;10.70;;
80115;SDS011;69423;47.608;19.366;2023-05-23T01:34:35;10.50;;;10.50;;
80115;SDS011;69423;47.608;19.366;2023-05-23T01:35:06;10.23;;;10.17;;
80115;SDS011;69423;47.608;19.366;2023-05-23T01:35:39;10.57;;;10.43;;
80115;SDS011;69423;47.608;19.366;2023-05-23T01:36:13;9.97;;;9.97;;
80115;SDS011;69423;47.608;19.366;2023-05-23T01:36:44;10.47;;;10.47;;
80115;SDS011;69423;47.608;19.366;2023-05-23T01:37:18;10.47;;;10.30;;
80115;SDS011;69423;47.608;19.366;2023-05-23T01:37:49;10.10;;;10.00;;
80115;SDS011;69423;47.608;19.366;2023-05-23T01:38:20;9.93;;;9.93;;
80115;SDS011;69423;47.608;19.366;2023-05-23T01:38:51;10.53;;;10.53;;
80115;SDS011;69423;47.608;19.366;2023-05-23T01:39:22;10.53;;;10.53;;
80115;SDS011;69423;47.608;19.366;2023-05-23T01:39:53;9.90;;;9.87;;
80115;SDS011;69423;47.608;19.366;2023-05-23T01:40:24;9.73;;;9.70;;
80115;SDS011;69423;47.608;19.366;2023-05-23T01:40:55;10.13;;;10.13;;
80115;SDS011;69423;47.608;19.366;2023-05-23T01:41:26;9.97;;;9.97;;
80115;SDS011;69423;47.608;19.366;2023-05-23T01:41:57;9.60;;;9.60;;
80115;SDS011;69423;47.608;19.366;2023-05-23T01:42:28;10.47;;;10.47;;
80115;SDS011;69423;47.608;19.366;2023-05-23T01:42:59;10.10;;;10.10;;
80115;SDS011;69423;47.608;19.366;2023-05-23T01:43:31;10.43;;;10.43;;
80115;SDS011;69423;47.608;19.366;2023-05-23T01:44:02;10.10;;;10.10;;
80115;SDS011;69423;47.608;19.366;2023-05-23T01:44:34;9.60;;;9.60;;
80115;SDS011;69423;47.608;19.366;2023-05-23T01:45:07;9.37;;;9.37;;
80115;SDS011;69423;47.608;19.366;2023-05-23T01:45:38;9.63;;;9.63;;
80115;SDS011;69423;47.608;19.366;2023-05-23T01:46:10;9.83;;;9.73;;
80115;SDS011;69423;47.608;19.366;2023-05-23T01:46:41;10.37;;;10.23;;
80115;SDS011;69423;47.608;19.366;2023-05-23T01:47:13;10.20;;;10.20;;
80115;SDS011;69423;47.608;19.366;2023-05-23T01:47:46;9.63;;;9.63;;
80115;SDS011;69423;47.608;19.366;2023-05-23T01:48:20;9.27;;;9.27;;
80115;SDS011;69423;47.608;19.366;2023-05-23T01:48:54;9.90;;;9.87;;
80115;SDS011;69423;47.608;19.366;2023-05-23T01:49:28;9.73;;;9.73;;
80115;SDS011;69423;47.608;19.366;2023-05-23T01:50:00;9.80;;;9.70;;
80115;SDS011;69423;47.608;19.366;2023-05-23T01:50:32;9.83;;;9.57;;
80115;SDS011;69423;47.608;19.366;2023-05-23T01:51:04;9.83;;;9.80;;
80115;SDS011;69423;47.608;19.366;2023-05-23T01:51:36;10.23;;;10.23;;
80115;SDS011;69423;47.608;19.366;2023-05-23T01:52:08;9.70;;;9.70;;
80115;SDS011;69423;47.608;19.366;2023-05-23T01:52:41;9.37;;;9.37;;
80115;SDS011;69423;47.608;19.366;2023-05-23T01:53:13;9.83;;;9.83;;
80115;SDS011;69423;47.608;19.366;2023-05-23T01:53:46;10.03;;;10.03;;
80115;SDS011;69423;47.608;19.366;2023-05-23T01:54:19;10.00;;;9.93;;
80115;SDS011;69423;47.608;19.366;2023-05-23T01:54:50;10.27;;;10.07;;
80115;SDS011;69423;47.608;19.366;2023-05-23T01:55:22;10.30;;;10.13;;
80115;SDS011;69423;47.608;19.366;2023-05-23T01:55:55;9.73;;;9.70;;
80115;SDS011;69423;47.608;19.366;2023-05-23T01:56:27;9.33;;;9.33;;
80115;SDS011;69423;47.608;19.366;2023-05-23T01:56:58;9.57;;;9.57;;
80115;SDS011;69423;47.608;19.366;2023-05-23T01:57:31;9.97;;;9.97;;
80115;SDS011;69423;47.608;19.366;2023-05-23T01:58:03;10.77;;;10.63;;
80115;SDS011;69423;47.608;19.366;2023-05-23T01:58:35;10.00;;;9.90;;
80115;SDS011;69423;47.608;19.366;2023-05-23T01:59:06;10.03;;;9.80;;
80115;SDS011;69423;47.608;19.366;2023-05-23T01:59:37;10.20;;;9.93;;
80115;SDS011;69423;47.608;19.366;2023-05-23T02:00:08;10.23;;;10.20;;
80115;SDS011;69423;47.608;19.366;2023-05-23T02:00:41;9.87;;;9.87;;
80115;SDS011;69423;47.608;19.366;2023-05-23T02:01:12;10.10;;;10.10;;
80115;SDS011;69423;47.608;19.366;2023-05-23T02:01:44;10.33;;;10.33;;
80115;SDS011;69423;47.608;19.366;2023-05-23T02:02:15;9.80;;;9.80;;
80115;SDS011;69423;47.608;19.366;2023-05-23T02:02:46;10.37;;;10.37;;
80115;SDS011;69423;47.608;19.366;2023-05-23T02:03:17;10.77;;;10.77;;
80115;SDS011;69423;47.608;19.366;2023-05-23T02:03:48;9.73;;;9.73;;
80115;SDS011;69423;47.608;19.366;2023-05-23T02:04:19;9.80;;;9.80;;
80115;SDS011;69423;47.608;19.366;2023-05-23T02:04:51;9.57;;;9.57;;
80115;SDS011;69423;47.608;19.366;2023-05-23T02:05:23;9.70;;;9.70;;
80115;SDS011;69423;47.608;19.366;2023-05-23T02:05:54;9.97;;;9.97;;
80115;SDS011;69423;47.608;19.366;2023-05-23T02:06:25;10.10;;;10.10;;
80115;SDS011;69423;47.608;19.366;2023-05-23T02:06:56;10.17;;;10.03;;
80115;SDS011;69423;47.608;19.366;2023-05-23T02:07:27;9.90;;;9.70;;
80115;SDS011;69423;47.608;19.366;2023-05-23T02:07:58;9.97;;;9.90;;
80115;SDS011;69423;47.608;19.366;2023-05-23T02:08:29;10.10;;;10.10;;
80115;SDS011;69423;47.608;19.366;2023-05-23T02:08:59;10.23;;;10.23;;
80115;SDS011;69423;47.608;19.366;2023-05-23T02:09:30;9.40;;;9.40;;
80115;SDS011;69423;47.608;19.366;2023-05-23T02:10:02;9.70;;;9.70;;
80115;SDS011;69423;47.608;19.366;2023-05-23T02:10:34;10.40;;;10.40;;
80115;SDS011;69423;47.608;19.366;2023-05-23T02:11:05;10.33;;;10.33;;
80115;SDS011;69423;47.608;19.366;2023-05-23T02:11:38;10.07;;;10.07;;
80115;SDS011;69423;47.608;19.366;2023-05-23T02:12:09;9.20;;;9.20;;
80115;SDS011;69423;47.608;19.366;2023-05-23T02:12:39;9.80;;;9.80;;
80115;SDS011;69423;47.608;19.366;2023-05-23T02:13:10;9.47;;;9.47;;
80115;SDS011;69423;47.608;19.366;2023-05-23T02:13:41;9.57;;;9.57;;
80115;SDS011;69423;47.608;19.366;2023-05-23T02:14:12;10.07;;;10.07;;
80115;SDS011;69423;47.608;19.366;2023-05-23T02:14:43;9.70;;;9.70;;
80115;SDS011;69423;47.608;19.366;2023-05-23T02:15:14;9.83;;;9.83;;
80115;SDS011;69423;47.608;19.366;2023-05-23T02:15:46;9.80;;;9.67;;
80115;SDS011;69423;47.608;19.366;2023-05-23T02:16:17;9.40;;;9.37;;
80115;SDS011;69423;47.608;19.366;2023-05-23T02:16:48;9.80;;;9.70;;
80115;SDS011;69423;47.608;19.366;2023-05-23T02:17:19;9.53;;;9.53;;
80115;SDS011;69423;47.608;19.366;2023-05-23T02:17:51;9.63;;;9.63;;
80115;SDS011;69423;47.608;19.366;2023-05-23T02:18:22;9.60;;;9.60;;
80115;SDS011;69423;47.608;19.366;2023-05-23T02:18:55;9.47;;;9.47;;
80115;SDS011;69423;47.608;19.366;2023-05-23T02:19:26;9.37;;;9.37;;
80115;SDS011;69423;47.608;19.366;2023-05-23T02:19:57;9.40;;;9.40;;
80115;SDS011;69423;47.608;19.366;2023-05-23T02:20:28;10.23;;;10.23;;
80115;SDS011;69423;47.608;19.366;2023-05-23T02:20:59;10.97;;;10.97;;
80115;SDS011;69423;47.608;19.366;2023-05-23T02:21:29;10.03;;;10.03;;
80115;SDS011;69423;47.608;19.366;2023-05-23T02:22:01;10.47;;;10.23;;
80115;SDS011;69423;47.608;19.366;2023-05-23T02:22:32;11.33;;;10.93;;
80115;SDS011;69423;47.608;19.366;2023-05-23T02:23:05;11.47;;;11.10;;
80115;SDS011;69423;47.608;19.366;2023-05-23T02:23:36;10.83;;;10.67;;
80115;SDS011;69423;47.608;19.366;2023-05-23T02:24:06;10.47;;;10.33;;
80115;SDS011;69423;47.608;19.366;2023-05-23T02:24:37;10.47;;;10.37;;
80115;SDS011;69423;47.608;19.366;2023-05-23T02:25:08;10.10;;;10.10;;
80115;SDS011;69423;47.608;19.366;2023-05-23T02:25:39;9.90;;;9.90;;
80115;SDS011;69423;47.608;19.366;2023-05-23T02:26:10;10.13;;;10.13;;
80115;SDS011;69423;47.608;19.366;2023-05-23T02:26:41;10.40;;;10.40;;
80115;SDS011;69423;47.608;19.366;2023-05-23T02:27:12;9.80;;;9.80;;
80115;SDS011;69423;47.608;19.366;2023-05-23T02:27:43;10.17;;;10.17;;
80115;SDS011;69423;47.608;19.366;2023-05-23T02:28:14;10.00;;;9.97;;
80115;SDS011;69423;47.608;19.366;2023-05-23T02:28:45;10.77;;;10.77;;
80115;SDS011;69423;47.608;19.366;2023-05-23T02:29:15;10.80;;;10.80;;
80115;SDS011;69423;47.608;19.366;2023-05-23T02:29:46;11.20;;;11.20;;
80115;SDS011;69423;47.608;19.366;2023-05-23T02:30:17;10.53;;;10.53;;
80115;SDS011;69423;47.608;19.366;2023-05-23T02:30:48;10.73;;;10.57;;
80115;SDS011;69423;47.608;19.366;2023-05-23T02:31:19;10.67;;;10.57;;
80115;SDS011;69423;47.608;19.366;2023-05-23T02:31:50;10.27;;;10.27;;
80115;SDS011;69423;47.608;19.366;2023-05-23T02:32:21;10.93;;;10.93;;
80115;SDS011;69423;47.608;19.366;2023-05-23T02:32:52;11.37;;;11.37;;
80115;SDS011;69423;47.608;19.366;2023-05-23T02:33:23;10.67;;;10.67;;
80115;SDS011;69423;47.608;19.366;2023-05-23T02:33:54;10.43;;;10.43;;
80115;SDS011;69423;47.608;19.366;2023-05-23T02:34:25;10.63;;;10.63;;
80115;SDS011;69423;47.608;19.366;2023-05-23T02:34:55;12.33;;;12.33;;
80115;SDS011;69423;47.608;19.366;2023-05-23T02:35:27;12.70;;;12.70;;
80115;SDS011;69423;47.608;19.366;2023-05-23T02:35:58;12.57;;;12.57;;
80115;SDS011;69423;47.608;19.366;2023-05-23T02:36:29;11.00;;;11.00;;
80115;SDS011;69423;47.608;19.366;2023-05-23T02:37:02;9.87;;;9.87;;
80115;SDS011;69423;47.608;19.366;2023-05-23T02:37:33;10.37;;;10.20;;
80115;SDS011;69423;47.608;19.366;2023-05-23T02:38:04;10.30;;;10.07;;
80115;SDS011;69423;47.608;19.366;2023-05-23T02:38:35;11.33;;;11.10;;
80115;SDS011;69423;47.608;19.366;2023-05-23T02:39:06;11.80;;;11.70;;
80115;SDS011;69423;47.608;19.366;2023-05-23T02:39:37;10.67;;;10.67;;
80115;SDS011;69423;47.608;19.366;2023-05-23T02:40:08;10.43;;;10.27;;
80115;SDS011;69423;47.608;19.366;2023-05-23T02:40:39;10.53;;;10.17;;
80115;SDS011;69423;47.608;19.366;2023-05-23T02:41:10;9.80;;;9.77;;
80115;SDS011;69423;47.608;19.366;2023-05-23T02:41:41;10.13;;;10.13;;
80115;SDS011;69423;47.608;19.366;2023-05-23T02:42:12;10.53;;;10.53;;
80115;SDS011;69423;47.608;19.366;2023-05-23T02:42:42;10.23;;;10.23;;
80115;SDS011;69423;47.608;19.366;2023-05-23T02:43:13;10.43;;;10.43;;
80115;SDS011;69423;47.608;19.366;2023-05-23T02:43:46;10.00;;;10.00;;
80115;SDS011;69423;47.608;19.366;2023-05-23T02:44:17;11.00;;;11.00;;
80115;SDS011;69423;47.608;19.366;2023-05-23T02:44:49;11.03;;;11.03;;
80115;SDS011;69423;47.608;19.366;2023-05-23T02:45:19;10.60;;;10.60;;
80115;SDS011;69423;47.608;19.366;2023-05-23T02:45:50;10.47;;;10.47;;
80115;SDS011;69423;47.608;19.366;2023-05-23T02:46:21;11.23;;;11.23;;
80115;SDS011;69423;47.608;19.366;2023-05-23T02:46:52;11.17;;;11.13;;
80115;SDS011;69423;47.608;19.366;2023-05-23T02:47:23;10.53;;;10.27;;
80115;SDS011;69423;47.608;19.366;2023-05-23T02:47:54;10.47;;;10.27;;
80115;SDS011;69423;47.608;19.366;2023-05-23T02:48:25;10.80;;;10.63;;
80115;SDS011;69423;47.608;19.366;2023-05-23T02:48:56;10.13;;;10.10;;
80115;SDS011;69423;47.608;19.366;2023-05-23T02:49:26;10.50;;;10.40;;
80115;SDS011;69423;47.608;19.366;2023-05-23T02:49:57;10.93;;;10.80;;
80115;SDS011;69423;47.608;19.366;2023-05-23T02:50:28;10.33;;;10.33;;
80115;SDS011;69423;47.608;19.366;2023-05-23T02:50:59;10.47;;;10.40;;
80115;SDS011;69423;47.608;19.366;2023-05-23T02:51:30;11.00;;;10.73;;
80115;SDS011;69423;47.608;19.366;2023-05-23T02:52:01;10.40;;;10.37;;
80115;SDS011;69423;47.608;19.366;2023-05-23T02:52:32;9.70;;;9.67;;
80115;SDS011;69423;47.608;19.366;2023-05-23T02:53:03;10.07;;;10.07;;
80115;SDS011;69423;47.608;19.366;2023-05-23T02:53:34;10.70;;;10.70;;
80115;SDS011;69423;47.608;19.366;2023-05-23T02:54:05;10.77;;;10.77;;
80115;SDS011;69423;47.608;19.366;2023-05-23T02:54:35;10.53;;;10.53;;
80115;SDS011;69423;47.608;19.366;2023-05-23T02:55:07;10.37;;;10.37;;
80115;SDS011;69423;47.608;19.366;2023-05-23T02:55:38;10.47;;;10.47;;
80115;SDS011;69423;47.608;19.366;2023-05-23T02:56:09;10.47;;;10.47;;
80115;SDS011;69423;47.608;19.366;2023-05-23T02:56:41;10.30;;;10.27;;
80115;SDS011;69423;47.608;19.366;2023-05-23T02:57:11;9.87;;;9.77;;
80115;SDS011;69423;47.608;19.366;2023-05-23T02:57:42;10.73;;;10.73;;
80115;SDS011;69423;47.608;19.366;2023-05-23T02:58:13;10.67;;;10.67;;
80115;SDS011;69423;47.608;19.366;2023-05-23T02:58:44;10.80;;;10.80;;
80115;SDS011;69423;47.608;19.366;2023-05-23T02:59:15;10.73;;;10.73;;
80115;SDS011;69423;47.608;19.366;2023-05-23T02:59:47;10.23;;;10.23;;
80115;SDS011;69423;47.608;19.366;2023-05-23T03:00:18;10.47;;;10.47;;
80115;SDS011;69423;47.608;19.366;2023-05-23T03:00:49;10.97;;;10.97;;
80115;SDS011;69423;47.608;19.366;2023-05-23T03:01:20;11.43;;;11.43;;
80115;SDS011;69423;47.608;19.366;2023-05-23T03:01:51;11.03;;;11.03;;
80115;SDS011;69423;47.608;19.366;2023-05-23T03:02:22;10.43;;;10.43;;
80115;SDS011;69423;47.608;19.366;2023-05-23T03:02:53;10.40;;;10.40;;
80115;SDS011;69423;47.608;19.366;2023-05-23T03:03:24;10.37;;;10.37;;
80115;SDS011;69423;47.608;19.366;2023-05-23T03:03:54;11.00;;;11.00;;
80115;SDS011;69423;47.608;19.366;2023-05-23T03:04:26;11.63;;;11.63;;
80115;SDS011;69423;47.608;19.366;2023-05-23T03:04:57;11.67;;;11.50;;
80115;SDS011;69423;47.608;19.366;2023-05-23T03:05:27;11.33;;;11.10;;
80115;SDS011;69423;47.608;19.366;2023-05-23T03:05:59;10.83;;;10.70;;
80115;SDS011;69423;47.608;19.366;2023-05-23T03:06:31;10.80;;;10.70;;
80115;SDS011;69423;47.608;19.366;2023-05-23T03:07:03;10.83;;;10.57;;
80115;SDS011;69423;47.608;19.366;2023-05-23T03:07:35;10.57;;;10.40;;
80115;SDS011;69423;47.608;19.366;2023-05-23T03:08:07;10.93;;;10.93;;
80115;SDS011;69423;47.608;19.366;2023-05-23T03:08:38;10.73;;;10.73;;
80115;SDS011;69423;47.608;19.366;2023-05-23T03:09:10;10.90;;;10.90;;
80115;SDS011;69423;47.608;19.366;2023-05-23T03:09:41;10.10;;;10.10;;
80115;SDS011;69423;47.608;19.366;2023-05-23T03:10:11;10.60;;;10.53;;
80115;SDS011;69423;47.608;19.366;2023-05-23T03:10:42;11.20;;;10.83;;
80115;SDS011;69423;47.608;19.366;2023-05-23T03:11:13;11.00;;;10.53;;
80115;SDS011;69423;47.608;19.366;2023-05-23T03:11:44;10.80;;;10.40;;
80115;SDS011;69423;47.608;19.366;2023-05-23T03:12:15;11.50;;;11.50;;
80115;SDS011;69423;47.608;19.366;2023-05-23T03:12:46;11.37;;;11.33;;
80115;SDS011;69423;47.608;19.366;2023-05-23T03:13:17;10.97;;;10.87;;
80115;SDS011;69423;47.608;19.366;2023-05-23T03:13:48;10.13;;;10.13;;
80115;SDS011;69423;47.608;19.366;2023-05-23T03:14:19;10.87;;;10.87;;